sensor_id;sensor_type;location;lat;lon;timestamp;P1;durP1;ratioP1;P2;durP2;ratioP2
8675;SDS011;4375;52.486;13.424;2023-02-22T00:01:08;41.17;;;5.10;;
8675;SDS011;4375;52.486;13.424;2023-02-22T00:03:43;28.80;;;3.87;;
8675;SDS011;4375;52.486;13.424;2023-02-22T00:06:16;23.03;;;4.50;;
8675;SDS011;4375;52.486;13.424;2023-02-22T00:08:45;21.23;;;4.00;;
8675;SDS011;4375;52.486;13.424;2023-02-22T00:11:12;21.63;;;3.87;;
8675;SDS011;4375;52.486;13.424;2023-02-22T00:13:38;34.87;;;4.23;;
8675;SDS011;4375;52.486;13.424;2023-02-22T00:16:08;26.17;;;4.30;;
8675;SDS011;4375;52.486;13.424;2023-02-22T00:18:37;25.00;;;4.20;;
8675;SDS011;4375;52.486;13.424;2023-02-22T00:21:02;29.77;;;4.23;;
8675;SDS011;4375;52.486;13.424;2023-02-22T00:23:29;33.50;;;7.30;;
8675;SDS011;4375;52.486;13.424;2023-02-22T00:25:56;31.20;;;6.00;;
8675;SDS011;4375;52.486;13.424;2023-02-22T00:28:23;34.67;;;6.73;;
8675;SDS011;4375;52.486;13.424;2023-02-22T00:30:49;27.30;;;4.77;;
8675;SDS011;4375;52.486;13.424;2023-02-22T00:33:16;30.37;;;4.70;;
8675;SDS011;4375;52.486;13.424;2023-02-22T00:35:42;39.23;;;5.00;;
8675;SDS011;4375;52.486;13.424;2023-02-22T00:38:13;27.03;;;4.00;;
8675;SDS011;4375;52.486;13.424;2023-02-22T00:40:40;28.57;;;4.53;;
8675;SDS011;4375;52.486;13.424;2023-02-22T00:43:06;33.77;;;5.03;;
8675;SDS011;4375;52.486;13.424;2023-02-22T00:45:33;28.53;;;4.50;;
8675;SDS011;4375;52.486;13.424;2023-02-22T00:48:00;39.90;;;5.70;;
8675;SDS011;4375;52.486;13.424;2023-02-22T00:50:28;22.90;;;3.70;;
8675;SDS011;4375;52.486;13.424;2023-02-22T00:52:55;35.53;;;4.50;;
8675;SDS011;4375;52.486;13.424;2023-02-22T00:55:22;26.50;;;3.97;;
8675;SDS011;4375;52.486;13.424;2023-02-22T00:57:53;29.20;;;3.90;;
8675;SDS011;4375;52.486;13.424;2023-02-22T01:00:20;25.37;;;4.27;;
8675;SDS011;4375;52.486;13.424;2023-02-22T01:02:49;25.50;;;3.97;;
8675;SDS011;4375;52.486;13.424;2023-02-22T01:05:17;30.47;;;4.27;;
8675;SDS011;4375;52.486;13.424;2023-02-22T01:07:45;28.80;;;4.93;;
8675;SDS011;4375;52.486;13.424;2023-02-22T01:10:11;26.97;;;4.47;;
8675;SDS011;4375;52.486;13.424;2023-02-22T01:12:37;34.60;;;3.97;;
8675;SDS011;4375;52.486;13.424;2023-02-22T01:15:04;20.33;;;3.93;;
8675;SDS011;4375;52.486;13.424;2023-02-22T01:17:34;24.73;;;4.30;;
8675;SDS011;4375;52.486;13.424;2023-02-22T01:20:01;23.87;;;4.03;;
8675;SDS011;4375;52.486;13.424;2023-02-22T01:22:34;29.20;;;4.37;;
8675;SDS011;4375;52.486;13.424;2023-02-22T01:25:01;28.07;;;3.80;;
8675;SDS011;4375;52.486;13.424;2023-02-22T01:27:27;23.73;;;3.43;;
8675;SDS011;4375;52.486;13.424;2023-02-22T01:29:53;29.83;;;4.70;;
8675;SDS011;4375;52.486;13.424;2023-02-22T01:32:18;28.20;;;3.77;;
8675;SDS011;4375;52.486;13.424;2023-02-22T01:34:44;26.50;;;3.83;;
8675;SDS011;4375;52.486;13.424;2023-02-22T01:37:10;31.97;;;4.60;;
8675;SDS011;4375;52.486;13.424;2023-02-22T01:39:35;31.23;;;4.10;;
8675;SDS011;4375;52.486;13.424;2023-02-22T01:42:01;26.50;;;3.70;;
8675;SDS011;4375;52.486;13.424;2023-02-22T01:44:31;26.57;;;4.00;;
8675;SDS011;4375;52.486;13.424;2023-02-22T01:47:00;23.73;;;3.60;;
8675;SDS011;4375;52.486;13.424;2023-02-22T01:49:32;32.53;;;4.90;;
8675;SDS011;4375;52.486;13.424;2023-02-22T01:52:06;23.13;;;4.10;;
8675;SDS011;4375;52.486;13.424;2023-02-22T01:54:35;30.67;;;3.97;;
8675;SDS011;4375;52.486;13.424;2023-02-22T01:57:06;22.73;;;3.60;;
8675;SDS011;4375;52.486;13.424;2023-02-22T01:59:45;27.67;;;4.27;;
8675;SDS011;4375;52.486;13.424;2023-02-22T02:02:14;33.60;;;4.23;;
8675;SDS011;4375;52.486;13.424;2023-02-22T02:04:42;32.37;;;4.63;;
8675;SDS011;4375;52.486;13.424;2023-02-22T02:07:10;24.90;;;4.73;;
8675;SDS011;4375;52.486;13.424;2023-02-22T02:09:50;34.97;;;4.80;;
8675;SDS011;4375;52.486;13.424;2023-02-22T02:12:38;23.53;;;4.13;;
8675;SDS011;4375;52.486;13.424;2023-02-22T02:15:26;39.23;;;5.30;;
8675;SDS011;4375;52.486;13.424;2023-02-22T02:17:53;26.20;;;4.53;;
8675;SDS011;4375;52.486;13.424;2023-02-22T02:20:23;31.10;;;5.27;;
8675;SDS011;4375;52.486;13.424;2023-02-22T02:23:07;30.23;;;5.10;;
8675;SDS011;4375;52.486;13.424;2023-02-22T02:36:55;31.53;;;3.40;;
8675;SDS011;4375;52.486;13.424;2023-02-22T02:39:38;27.37;;;4.70;;
8675;SDS011;4375;52.486;13.424;2023-02-22T02:42:13;41.77;;;6.13;;
8675;SDS011;4375;52.486;13.424;2023-02-22T02:44:47;23.83;;;4.33;;
8675;SDS011;4375;52.486;13.424;2023-02-22T02:47:21;31.07;;;4.53;;
8675;SDS011;4375;52.486;13.424;2023-02-22T02:52:22;27.07;;;4.20;;
8675;SDS011;4375;52.486;13.424;2023-02-22T02:54:50;27.13;;;4.40;;
8675;SDS011;4375;52.486;13.424;2023-02-22T02:57:17;35.50;;;5.23;;
8675;SDS011;4375;52.486;13.424;2023-02-22T02:59:42;27.60;;;4.60;;
8675;SDS011;4375;52.486;13.424;2023-02-22T03:24:30;33.83;;;4.87;;
8675;SDS011;4375;52.486;13.424;2023-02-22T03:27:17;31.63;;;5.50;;
8675;SDS011;4375;52.486;13.424;2023-02-22T03:29:50;37.97;;;4.70;;
8675;SDS011;4375;52.486;13.424;2023-02-22T03:32:20;26.60;;;4.47;;
8675;SDS011;4375;52.486;13.424;2023-02-22T03:34:50;33.73;;;5.60;;
8675;SDS011;4375;52.486;13.424;2023-02-22T03:37:23;27.30;;;4.03;;
8675;SDS011;4375;52.486;13.424;2023-02-22T03:39:54;29.00;;;5.47;;
8675;SDS011;4375;52.486;13.424;2023-02-22T03:42:23;25.77;;;4.57;;
8675;SDS011;4375;52.486;13.424;2023-02-22T03:44:53;26.70;;;4.80;;
8675;SDS011;4375;52.486;13.424;2023-02-22T03:47:24;31.80;;;5.03;;
8675;SDS011;4375;52.486;13.424;2023-02-22T03:50:17;25.00;;;5.00;;
8675;SDS011;4375;52.486;13.424;2023-02-22T03:52:46;31.43;;;4.73;;
8675;SDS011;4375;52.486;13.424;2023-02-22T03:55:13;34.37;;;4.73;;
8675;SDS011;4375;52.486;13.424;2023-02-22T03:57:43;33.80;;;7.00;;
8675;SDS011;4375;52.486;13.424;2023-02-22T04:00:13;25.50;;;4.70;;
8675;SDS011;4375;52.486;13.424;2023-02-22T04:02:42;23.33;;;5.40;;
8675;SDS011;4375;52.486;13.424;2023-02-22T04:05:08;33.43;;;5.33;;
8675;SDS011;4375;52.486;13.424;2023-02-22T04:07:34;27.57;;;4.93;;
8675;SDS011;4375;52.486;13.424;2023-02-22T04:09:59;26.27;;;4.57;;
8675;SDS011;4375;52.486;13.424;2023-02-22T04:12:27;26.20;;;5.60;;
8675;SDS011;4375;52.486;13.424;2023-02-22T04:14:52;26.67;;;4.77;;
8675;SDS011;4375;52.486;13.424;2023-02-22T04:17:18;26.30;;;5.20;;
8675;SDS011;4375;52.486;13.424;2023-02-22T04:19:44;29.40;;;5.13;;
8675;SDS011;4375;52.486;13.424;2023-02-22T04:22:10;29.87;;;5.50;;
8675;SDS011;4375;52.486;13.424;2023-02-22T04:24:36;33.20;;;5.73;;
8675;SDS011;4375;52.486;13.424;2023-02-22T04:27:01;29.00;;;4.80;;
8675;SDS011;4375;52.486;13.424;2023-02-22T04:29:27;24.50;;;5.57;;
8675;SDS011;4375;52.486;13.424;2023-02-22T04:31:53;27.13;;;4.20;;
8675;SDS011;4375;52.486;13.424;2023-02-22T04:34:19;28.57;;;5.13;;
8675;SDS011;4375;52.486;13.424;2023-02-22T04:36:45;22.03;;;5.03;;
8675;SDS011;4375;52.486;13.424;2023-02-22T04:39:11;38.57;;;6.00;;
8675;SDS011;4375;52.486;13.424;2023-02-22T04:41:36;36.80;;;5.20;;
8675;SDS011;4375;52.486;13.424;2023-02-22T04:44:02;26.57;;;4.77;;
8675;SDS011;4375;52.486;13.424;2023-02-22T04:46:28;30.40;;;4.90;;
8675;SDS011;4375;52.486;13.424;2023-02-22T04:48:54;30.47;;;4.90;;
8675;SDS011;4375;52.486;13.424;2023-02-22T04:51:21;28.83;;;4.37;;
8675;SDS011;4375;52.486;13.424;2023-02-22T04:53:47;31.33;;;5.70;;
8675;SDS011;4375;52.486;13.424;2023-02-22T04:56:13;22.70;;;4.60;;
8675;SDS011;4375;52.486;13.424;2023-02-22T04:58:41;31.37;;;5.03;;
8675;SDS011;4375;52.486;13.424;2023-02-22T05:01:07;33.93;;;5.97;;
8675;SDS011;4375;52.486;13.424;2023-02-22T05:03:32;25.80;;;5.60;;
8675;SDS011;4375;52.486;13.424;2023-02-22T05:06:01;26.70;;;5.03;;
8675;SDS011;4375;52.486;13.424;2023-02-22T05:08:26;34.00;;;6.20;;
8675;SDS011;4375;52.486;13.424;2023-02-22T05:10:52;27.03;;;5.60;;
8675;SDS011;4375;52.486;13.424;2023-02-22T05:13:18;31.13;;;7.13;;
8675;SDS011;4375;52.486;13.424;2023-02-22T05:15:44;36.10;;;5.40;;
8675;SDS011;4375;52.486;13.424;2023-02-22T05:18:09;34.33;;;6.20;;
8675;SDS011;4375;52.486;13.424;2023-02-22T05:20:35;37.87;;;8.33;;
8675;SDS011;4375;52.486;13.424;2023-02-22T05:23:01;37.40;;;7.20;;
8675;SDS011;4375;52.486;13.424;2023-02-22T05:25:27;34.40;;;6.23;;
8675;SDS011;4375;52.486;13.424;2023-02-22T05:27:57;22.90;;;5.50;;
8675;SDS011;4375;52.486;13.424;2023-02-22T05:30:27;35.23;;;6.63;;
8675;SDS011;4375;52.486;13.424;2023-02-22T05:32:54;28.90;;;6.10;;
8675;SDS011;4375;52.486;13.424;2023-02-22T05:35:20;30.90;;;6.57;;
8675;SDS011;4375;52.486;13.424;2023-02-22T05:37:47;35.93;;;6.83;;
8675;SDS011;4375;52.486;13.424;2023-02-22T05:40:14;32.40;;;6.27;;
8675;SDS011;4375;52.486;13.424;2023-02-22T05:42:46;29.80;;;5.97;;
8675;SDS011;4375;52.486;13.424;2023-02-22T05:45:13;35.20;;;7.60;;
8675;SDS011;4375;52.486;13.424;2023-02-22T05:47:39;32.97;;;6.57;;
8675;SDS011;4375;52.486;13.424;2023-02-22T05:50:05;36.43;;;7.10;;
8675;SDS011;4375;52.486;13.424;2023-02-22T05:52:31;29.67;;;6.30;;
8675;SDS011;4375;52.486;13.424;2023-02-22T05:54:57;29.17;;;6.67;;
8675;SDS011;4375;52.486;13.424;2023-02-22T05:57:23;31.40;;;6.83;;
8675;SDS011;4375;52.486;13.424;2023-02-22T05:59:48;32.50;;;6.97;;
8675;SDS011;4375;52.486;13.424;2023-02-22T06:02:14;28.97;;;6.00;;
8675;SDS011;4375;52.486;13.424;2023-02-22T06:04:42;27.23;;;6.80;;
8675;SDS011;4375;52.486;13.424;2023-02-22T06:07:12;36.40;;;6.03;;
8675;SDS011;4375;52.486;13.424;2023-02-22T06:09:38;29.20;;;5.80;;
8675;SDS011;4375;52.486;13.424;2023-02-22T06:12:04;29.57;;;5.93;;
8675;SDS011;4375;52.486;13.424;2023-02-22T06:14:30;30.90;;;5.50;;
8675;SDS011;4375;52.486;13.424;2023-02-22T06:16:56;34.37;;;5.03;;
8675;SDS011;4375;52.486;13.424;2023-02-22T06:19:23;28.37;;;5.00;;
8675;SDS011;4375;52.486;13.424;2023-02-22T06:21:49;33.37;;;5.07;;
8675;SDS011;4375;52.486;13.424;2023-02-22T06:24:15;29.70;;;4.90;;
8675;SDS011;4375;52.486;13.424;2023-02-22T06:26:41;29.97;;;6.37;;
8675;SDS011;4375;52.486;13.424;2023-02-22T06:29:07;30.50;;;6.47;;
8675;SDS011;4375;52.486;13.424;2023-02-22T06:31:33;28.53;;;5.57;;
8675;SDS011;4375;52.486;13.424;2023-02-22T06:33:59;31.60;;;6.40;;
8675;SDS011;4375;52.486;13.424;2023-02-22T06:36:24;32.00;;;6.17;;
8675;SDS011;4375;52.486;13.424;2023-02-22T06:38:50;29.37;;;5.40;;
8675;SDS011;4375;52.486;13.424;2023-02-22T06:41:16;26.30;;;7.27;;
8675;SDS011;4375;52.486;13.424;2023-02-22T06:43:41;33.73;;;6.60;;
8675;SDS011;4375;52.486;13.424;2023-02-22T06:46:10;37.33;;;7.00;;
8675;SDS011;4375;52.486;13.424;2023-02-22T06:48:36;41.83;;;6.60;;
8675;SDS011;4375;52.486;13.424;2023-02-22T06:51:04;32.93;;;7.23;;
8675;SDS011;4375;52.486;13.424;2023-02-22T06:53:33;28.70;;;6.67;;
8675;SDS011;4375;52.486;13.424;2023-02-22T06:55:59;33.83;;;7.20;;
8675;SDS011;4375;52.486;13.424;2023-02-22T06:58:24;31.73;;;7.83;;
8675;SDS011;4375;52.486;13.424;2023-02-22T07:00:51;35.20;;;6.17;;
8675;SDS011;4375;52.486;13.424;2023-02-22T07:03:17;34.97;;;6.70;;
8675;SDS011;4375;52.486;13.424;2023-02-22T07:05:42;32.50;;;7.47;;
8675;SDS011;4375;52.486;13.424;2023-02-22T07:08:09;29.83;;;6.90;;
8675;SDS011;4375;52.486;13.424;2023-02-22T07:10:35;32.13;;;8.10;;
8675;SDS011;4375;52.486;13.424;2023-02-22T07:13:02;31.60;;;6.90;;
8675;SDS011;4375;52.486;13.424;2023-02-22T07:15:29;30.23;;;7.17;;
8675;SDS011;4375;52.486;13.424;2023-02-22T07:17:56;37.27;;;7.50;;
8675;SDS011;4375;52.486;13.424;2023-02-22T07:20:22;34.90;;;7.00;;
8675;SDS011;4375;52.486;13.424;2023-02-22T07:22:50;37.77;;;7.30;;
8675;SDS011;4375;52.486;13.424;2023-02-22T07:25:16;25.23;;;7.03;;
8675;SDS011;4375;52.486;13.424;2023-02-22T07:27:42;34.10;;;7.87;;
8675;SDS011;4375;52.486;13.424;2023-02-22T07:30:13;34.10;;;7.20;;
8675;SDS011;4375;52.486;13.424;2023-02-22T07:32:55;36.60;;;7.73;;
8675;SDS011;4375;52.486;13.424;2023-02-22T07:35:26;31.33;;;6.70;;
8675;SDS011;4375;52.486;13.424;2023-02-22T07:37:54;28.03;;;7.40;;
8675;SDS011;4375;52.486;13.424;2023-02-22T07:40:20;33.30;;;6.57;;
8675;SDS011;4375;52.486;13.424;2023-02-22T07:42:50;32.07;;;6.90;;
8675;SDS011;4375;52.486;13.424;2023-02-22T07:45:23;38.33;;;9.37;;
8675;SDS011;4375;52.486;13.424;2023-02-22T07:47:51;35.70;;;8.73;;
8675;SDS011;4375;52.486;13.424;2023-02-22T07:50:17;38.97;;;8.77;;
8675;SDS011;4375;52.486;13.424;2023-02-22T07:52:48;31.13;;;8.10;;
8675;SDS011;4375;52.486;13.424;2023-02-22T07:55:16;35.10;;;8.30;;
8675;SDS011;4375;52.486;13.424;2023-02-22T07:57:47;35.20;;;9.07;;
8675;SDS011;4375;52.486;13.424;2023-02-22T08:00:14;30.93;;;8.73;;
8675;SDS011;4375;52.486;13.424;2023-02-22T08:02:45;43.03;;;10.50;;
8675;SDS011;4375;52.486;13.424;2023-02-22T08:05:12;36.33;;;8.60;;
8675;SDS011;4375;52.486;13.424;2023-02-22T08:07:38;46.80;;;11.00;;
8675;SDS011;4375;52.486;13.424;2023-02-22T08:10:05;33.80;;;9.10;;
8675;SDS011;4375;52.486;13.424;2023-02-22T08:12:35;36.03;;;8.93;;
8675;SDS011;4375;52.486;13.424;2023-02-22T08:15:03;28.20;;;7.77;;
8675;SDS011;4375;52.486;13.424;2023-02-22T08:17:33;43.53;;;9.00;;
8675;SDS011;4375;52.486;13.424;2023-02-22T08:19:58;36.37;;;7.50;;
8675;SDS011;4375;52.486;13.424;2023-02-22T08:26:04;37.73;;;7.10;;
8675;SDS011;4375;52.486;13.424;2023-02-22T08:28:34;32.17;;;6.70;;
8675;SDS011;4375;52.486;13.424;2023-02-22T08:31:02;34.50;;;6.43;;
8675;SDS011;4375;52.486;13.424;2023-02-22T08:33:27;32.53;;;6.50;;
8675;SDS011;4375;52.486;13.424;2023-02-22T08:35:53;32.10;;;6.53;;
8675;SDS011;4375;52.486;13.424;2023-02-22T08:38:20;33.20;;;7.17;;
8675;SDS011;4375;52.486;13.424;2023-02-22T08:40:53;25.30;;;6.00;;
8675;SDS011;4375;52.486;13.424;2023-02-22T08:43:19;39.93;;;8.63;;
8675;SDS011;4375;52.486;13.424;2023-02-22T08:45:45;27.03;;;5.20;;
8675;SDS011;4375;52.486;13.424;2023-02-22T08:48:12;29.13;;;5.90;;
8675;SDS011;4375;52.486;13.424;2023-02-22T08:50:38;35.10;;;7.00;;
8675;SDS011;4375;52.486;13.424;2023-02-22T08:53:06;36.40;;;5.90;;
8675;SDS011;4375;52.486;13.424;2023-02-22T08:55:33;23.10;;;4.97;;
8675;SDS011;4375;52.486;13.424;2023-02-22T08:58:02;27.73;;;5.70;;
8675;SDS011;4375;52.486;13.424;2023-02-22T09:00:29;23.97;;;5.10;;
8675;SDS011;4375;52.486;13.424;2023-02-22T09:02:57;34.73;;;6.30;;
8675;SDS011;4375;52.486;13.424;2023-02-22T09:05:24;33.07;;;7.13;;
8675;SDS011;4375;52.486;13.424;2023-02-22T09:07:50;29.23;;;6.10;;
8675;SDS011;4375;52.486;13.424;2023-02-22T09:10:17;33.80;;;6.87;;
8675;SDS011;4375;52.486;13.424;2023-02-22T09:12:51;25.03;;;5.83;;
8675;SDS011;4375;52.486;13.424;2023-02-22T09:15:20;26.67;;;5.97;;
8675;SDS011;4375;52.486;13.424;2023-02-22T09:17:46;29.90;;;6.80;;
8675;SDS011;4375;52.486;13.424;2023-02-22T09:20:12;33.07;;;5.70;;
8675;SDS011;4375;52.486;13.424;2023-02-22T09:22:38;26.73;;;5.93;;
8675;SDS011;4375;52.486;13.424;2023-02-22T09:25:05;33.70;;;5.67;;
8675;SDS011;4375;52.486;13.424;2023-02-22T09:27:31;29.73;;;5.40;;
8675;SDS011;4375;52.486;13.424;2023-02-22T09:29:57;26.23;;;5.23;;
8675;SDS011;4375;52.486;13.424;2023-02-22T09:32:23;30.70;;;4.93;;
8675;SDS011;4375;52.486;13.424;2023-02-22T09:34:52;24.87;;;4.83;;
8675;SDS011;4375;52.486;13.424;2023-02-22T09:37:18;29.63;;;4.60;;
8675;SDS011;4375;52.486;13.424;2023-02-22T09:39:44;34.07;;;5.33;;
8675;SDS011;4375;52.486;13.424;2023-02-22T09:44:49;34.60;;;6.13;;
8675;SDS011;4375;52.486;13.424;2023-02-22T09:47:22;33.43;;;6.37;;
8675;SDS011;4375;52.486;13.424;2023-02-22T09:50:30;41.27;;;5.87;;
8675;SDS011;4375;52.486;13.424;2023-02-22T09:53:01;29.77;;;6.53;;
8675;SDS011;4375;52.486;13.424;2023-02-22T09:55:31;25.90;;;5.50;;
8675;SDS011;4375;52.486;13.424;2023-02-22T09:58:15;27.40;;;4.87;;
8675;SDS011;4375;52.486;13.424;2023-02-22T10:00:49;27.53;;;5.23;;
8675;SDS011;4375;52.486;13.424;2023-02-22T10:06:20;36.30;;;5.13;;
8675;SDS011;4375;52.486;13.424;2023-02-22T10:08:48;21.77;;;5.00;;
8675;SDS011;4375;52.486;13.424;2023-02-22T10:27:15;28.33;;;5.13;;
8675;SDS011;4375;52.486;13.424;2023-02-22T10:29:52;36.57;;;5.30;;
8675;SDS011;4375;52.486;13.424;2023-02-22T10:32:25;26.30;;;4.70;;
8675;SDS011;4375;52.486;13.424;2023-02-22T10:34:56;40.87;;;6.83;;
8675;SDS011;4375;52.486;13.424;2023-02-22T10:37:28;29.03;;;6.00;;
8675;SDS011;4375;52.486;13.424;2023-02-22T10:43:05;36.00;;;5.40;;
8675;SDS011;4375;52.486;13.424;2023-02-22T10:45:36;28.77;;;4.70;;
8675;SDS011;4375;52.486;13.424;2023-02-22T10:48:06;29.00;;;4.67;;
8675;SDS011;4375;52.486;13.424;2023-02-22T10:50:38;27.20;;;4.80;;
8675;SDS011;4375;52.486;13.424;2023-02-22T10:53:07;28.63;;;4.90;;
8675;SDS011;4375;52.486;13.424;2023-02-22T10:56:03;32.57;;;5.43;;
8675;SDS011;4375;52.486;13.424;2023-02-22T10:58:57;42.70;;;4.53;;
8675;SDS011;4375;52.486;13.424;2023-02-22T11:06:38;37.43;;;4.77;;
8675;SDS011;4375;52.486;13.424;2023-02-22T11:09:07;24.60;;;4.20;;
8675;SDS011;4375;52.486;13.424;2023-02-22T11:11:42;37.93;;;5.00;;
8675;SDS011;4375;52.486;13.424;2023-02-22T11:14:10;24.53;;;4.33;;
8675;SDS011;4375;52.486;13.424;2023-02-22T11:16:51;28.57;;;4.53;;
8675;SDS011;4375;52.486;13.424;2023-02-22T11:19:22;26.80;;;4.40;;
8675;SDS011;4375;52.486;13.424;2023-02-22T11:21:52;35.20;;;4.80;;
8675;SDS011;4375;52.486;13.424;2023-02-22T11:24:21;31.43;;;4.17;;
8675;SDS011;4375;52.486;13.424;2023-02-22T11:26:52;31.93;;;4.50;;
8675;SDS011;4375;52.486;13.424;2023-02-22T11:31:51;30.20;;;4.80;;
8675;SDS011;4375;52.486;13.424;2023-02-22T11:34:28;31.80;;;4.23;;
8675;SDS011;4375;52.486;13.424;2023-02-22T11:37:16;28.93;;;4.40;;
8675;SDS011;4375;52.486;13.424;2023-02-22T11:39:50;35.30;;;5.10;;
8675;SDS011;4375;52.486;13.424;2023-02-22T11:42:42;27.43;;;5.23;;
8675;SDS011;4375;52.486;13.424;2023-02-22T11:45:27;34.03;;;5.27;;
8675;SDS011;4375;52.486;13.424;2023-02-22T11:50:27;31.37;;;5.13;;
8675;SDS011;4375;52.486;13.424;2023-02-22T11:53:19;27.97;;;4.67;;
8675;SDS011;4375;52.486;13.424;2023-02-22T11:58:40;26.50;;;4.37;;
8675;SDS011;4375;52.486;13.424;2023-02-22T12:01:48;29.43;;;3.73;;
8675;SDS011;4375;52.486;13.424;2023-02-22T12:20:57;24.20;;;5.83;;
8675;SDS011;4375;52.486;13.424;2023-02-22T12:23:40;33.53;;;6.47;;
8675;SDS011;4375;52.486;13.424;2023-02-22T12:26:17;31.07;;;8.60;;
8675;SDS011;4375;52.486;13.424;2023-02-22T12:36:33;33.70;;;4.40;;
8675;SDS011;4375;52.486;13.424;2023-02-22T12:42:46;28.20;;;4.53;;
8675;SDS011;4375;52.486;13.424;2023-02-22T12:53:53;25.03;;;3.97;;
8675;SDS011;4375;52.486;13.424;2023-02-22T12:59:18;30.23;;;3.27;;
8675;SDS011;4375;52.486;13.424;2023-02-22T13:01:55;30.30;;;3.27;;
8675;SDS011;4375;52.486;13.424;2023-02-22T13:04:25;26.10;;;3.60;;
8675;SDS011;4375;52.486;13.424;2023-02-22T13:12:22;31.13;;;4.40;;
8675;SDS011;4375;52.486;13.424;2023-02-22T13:20:21;21.40;;;4.60;;
8675;SDS011;4375;52.486;13.424;2023-02-22T13:25:39;19.00;;;3.20;;
8675;SDS011;4375;52.486;13.424;2023-02-22T13:35:46;20.63;;;3.40;;
8675;SDS011;4375;52.486;13.424;2023-02-22T13:49:01;21.17;;;3.73;;
8675;SDS011;4375;52.486;13.424;2023-02-22T13:51:48;24.00;;;4.10;;
8675;SDS011;4375;52.486;13.424;2023-02-22T13:54:46;22.50;;;4.97;;
8675;SDS011;4375;52.486;13.424;2023-02-22T13:57:22;27.87;;;4.23;;
8675;SDS011;4375;52.486;13.424;2023-02-22T14:05:35;30.17;;;4.00;;
8675;SDS011;4375;52.486;13.424;2023-02-22T14:13:22;26.57;;;3.87;;
8675;SDS011;4375;52.486;13.424;2023-02-22T14:21:10;22.93;;;4.00;;
8675;SDS011;4375;52.486;13.424;2023-02-22T14:23:48;36.47;;;4.40;;
8675;SDS011;4375;52.486;13.424;2023-02-22T14:31:57;26.03;;;3.50;;
8675;SDS011;4375;52.486;13.424;2023-02-22T14:39:50;27.00;;;3.47;;
8675;SDS011;4375;52.486;13.424;2023-02-22T14:47:28;27.83;;;4.40;;
8675;SDS011;4375;52.486;13.424;2023-02-22T14:50:07;18.93;;;3.93;;
8675;SDS011;4375;52.486;13.424;2023-02-22T14:52:40;23.23;;;3.93;;
8675;SDS011;4375;52.486;13.424;2023-02-22T14:57:48;24.40;;;3.60;;
8675;SDS011;4375;52.486;13.424;2023-02-22T15:00:22;30.77;;;3.83;;
8675;SDS011;4375;52.486;13.424;2023-02-22T15:02:59;29.33;;;4.00;;
8675;SDS011;4375;52.486;13.424;2023-02-22T15:05:28;27.67;;;3.87;;
8675;SDS011;4375;52.486;13.424;2023-02-22T15:08:03;26.13;;;3.80;;
8675;SDS011;4375;52.486;13.424;2023-02-22T15:15:46;21.73;;;3.40;;
8675;SDS011;4375;52.486;13.424;2023-02-22T15:18:18;23.20;;;4.33;;
8675;SDS011;4375;52.486;13.424;2023-02-22T15:20:51;24.97;;;4.20;;
8675;SDS011;4375;52.486;13.424;2023-02-22T15:23:26;19.93;;;3.70;;
8675;SDS011;4375;52.486;13.424;2023-02-22T15:25:54;26.70;;;4.30;;
8675;SDS011;4375;52.486;13.424;2023-02-22T15:28:22;21.07;;;5.00;;
8675;SDS011;4375;52.486;13.424;2023-02-22T15:30:51;19.50;;;4.30;;
8675;SDS011;4375;52.486;13.424;2023-02-22T15:33:48;32.03;;;4.70;;
8675;SDS011;4375;52.486;13.424;2023-02-22T15:36:17;22.20;;;3.77;;
8675;SDS011;4375;52.486;13.424;2023-02-22T15:38:50;20.17;;;4.00;;
8675;SDS011;4375;52.486;13.424;2023-02-22T15:41:30;26.67;;;4.17;;
8675;SDS011;4375;52.486;13.424;2023-02-22T15:44:07;23.33;;;3.90;;
8675;SDS011;4375;52.486;13.424;2023-02-22T15:46:39;24.63;;;4.43;;
8675;SDS011;4375;52.486;13.424;2023-02-22T15:49:26;26.50;;;4.10;;
8675;SDS011;4375;52.486;13.424;2023-02-22T15:54:49;23.87;;;4.23;;
8675;SDS011;4375;52.486;13.424;2023-02-22T15:57:17;29.60;;;4.37;;
8675;SDS011;4375;52.486;13.424;2023-02-22T15:59:49;26.93;;;3.50;;
8675;SDS011;4375;52.486;13.424;2023-02-22T16:02:38;25.20;;;3.73;;
8675;SDS011;4375;52.486;13.424;2023-02-22T16:05:12;22.23;;;3.20;;
8675;SDS011;4375;52.486;13.424;2023-02-22T16:07:43;20.80;;;3.77;;
8675;SDS011;4375;52.486;13.424;2023-02-22T16:10:26;21.93;;;3.70;;
8675;SDS011;4375;52.486;13.424;2023-02-22T16:13:04;31.83;;;3.90;;
8675;SDS011;4375;52.486;13.424;2023-02-22T16:15:51;24.30;;;3.53;;
8675;SDS011;4375;52.486;13.424;2023-02-22T16:23:45;23.20;;;3.90;;
8675;SDS011;4375;52.486;13.424;2023-02-22T16:26:27;28.27;;;4.20;;
8675;SDS011;4375;52.486;13.424;2023-02-22T16:28:56;27.30;;;5.47;;
8675;SDS011;4375;52.486;13.424;2023-02-22T16:31:27;20.57;;;3.50;;
8675;SDS011;4375;52.486;13.424;2023-02-22T16:33:55;47.40;;;7.77;;
8675;SDS011;4375;52.486;13.424;2023-02-22T16:36:22;28.27;;;4.17;;
8675;SDS011;4375;52.486;13.424;2023-02-22T16:39:01;25.43;;;4.40;;
8675;SDS011;4375;52.486;13.424;2023-02-22T16:41:31;26.80;;;4.40;;
8675;SDS011;4375;52.486;13.424;2023-02-22T16:43:57;23.90;;;3.70;;
8675;SDS011;4375;52.486;13.424;2023-02-22T16:46:23;24.60;;;3.73;;
8675;SDS011;4375;52.486;13.424;2023-02-22T16:48:49;21.40;;;3.60;;
8675;SDS011;4375;52.486;13.424;2023-02-22T16:51:19;29.00;;;4.00;;
8675;SDS011;4375;52.486;13.424;2023-02-22T16:53:47;31.03;;;5.00;;
8675;SDS011;4375;52.486;13.424;2023-02-22T16:56:14;23.43;;;4.73;;
8675;SDS011;4375;52.486;13.424;2023-02-22T16:58:42;25.03;;;4.67;;
8675;SDS011;4375;52.486;13.424;2023-02-22T17:01:09;22.33;;;3.80;;
8675;SDS011;4375;52.486;13.424;2023-02-22T17:03:36;22.53;;;4.23;;
8675;SDS011;4375;52.486;13.424;2023-02-22T17:06:02;26.97;;;4.73;;
8675;SDS011;4375;52.486;13.424;2023-02-22T17:08:27;28.00;;;5.20;;
8675;SDS011;4375;52.486;13.424;2023-02-22T17:10:54;26.10;;;4.47;;
8675;SDS011;4375;52.486;13.424;2023-02-22T17:13:23;24.27;;;5.00;;
8675;SDS011;4375;52.486;13.424;2023-02-22T17:15:50;25.63;;;5.10;;
8675;SDS011;4375;52.486;13.424;2023-02-22T17:18:18;35.83;;;5.10;;
8675;SDS011;4375;52.486;13.424;2023-02-22T17:20:47;28.93;;;4.87;;
8675;SDS011;4375;52.486;13.424;2023-02-22T17:23:14;28.73;;;5.10;;
8675;SDS011;4375;52.486;13.424;2023-02-22T17:25:44;27.70;;;4.57;;
8675;SDS011;4375;52.486;13.424;2023-02-22T17:28:14;35.67;;;6.10;;
8675;SDS011;4375;52.486;13.424;2023-02-22T17:30:41;26.93;;;6.50;;
8675;SDS011;4375;52.486;13.424;2023-02-22T17:33:13;26.83;;;4.93;;
8675;SDS011;4375;52.486;13.424;2023-02-22T17:35:40;32.77;;;7.17;;
8675;SDS011;4375;52.486;13.424;2023-02-22T17:38:06;26.70;;;5.00;;
8675;SDS011;4375;52.486;13.424;2023-02-22T17:40:34;31.73;;;5.43;;
8675;SDS011;4375;52.486;13.424;2023-02-22T17:43:01;24.70;;;5.30;;
8675;SDS011;4375;52.486;13.424;2023-02-22T17:45:28;33.40;;;5.80;;
8675;SDS011;4375;52.486;13.424;2023-02-22T17:47:54;20.60;;;3.60;;
8675;SDS011;4375;52.486;13.424;2023-02-22T17:50:22;22.63;;;4.97;;
8675;SDS011;4375;52.486;13.424;2023-02-22T17:52:49;21.83;;;3.80;;
8675;SDS011;4375;52.486;13.424;2023-02-22T17:55:16;20.33;;;4.10;;
8675;SDS011;4375;52.486;13.424;2023-02-22T17:57:42;26.13;;;3.70;;
8675;SDS011;4375;52.486;13.424;2023-02-22T18:00:10;28.57;;;5.17;;
8675;SDS011;4375;52.486;13.424;2023-02-22T18:02:48;23.47;;;4.57;;
8675;SDS011;4375;52.486;13.424;2023-02-22T18:05:16;24.00;;;4.63;;
8675;SDS011;4375;52.486;13.424;2023-02-22T18:07:43;21.83;;;4.97;;
8675;SDS011;4375;52.486;13.424;2023-02-22T18:10:09;22.43;;;4.23;;
8675;SDS011;4375;52.486;13.424;2023-02-22T18:12:36;28.07;;;5.43;;
8675;SDS011;4375;52.486;13.424;2023-02-22T18:15:02;24.70;;;4.97;;
8675;SDS011;4375;52.486;13.424;2023-02-22T18:17:28;26.90;;;5.60;;
8675;SDS011;4375;52.486;13.424;2023-02-22T18:19:54;20.27;;;4.50;;
8675;SDS011;4375;52.486;13.424;2023-02-22T18:22:20;20.70;;;5.03;;